CW9307 Weather Reports


Display with metric or nautical units.
time (UTC)temp
F
wind
direction
speed
MPH
gust
MPH
rain 1hr
in
rain 24hr
in
rain mn
in
humidity
%
barometer
mb
20230206051512 27 143 3.0 7.0 0.00 0.00 0.00 80 1005.7
20230206050010 27 0 2.0 7.0 0.00 0.00 0.00 80 1005.8
20230206044510 27 0 0.0 4.0 0.00 0.00 0.00 81 1006.4
20230206043017 27 0 1.0 3.0 0.00 0.00 0.00 81 1006.2
20230206041515 27 165 1.0 3.0 0.00 0.00 0.00 82 1006.5
20230206040023 26 221 0.0 1.0 0.00 0.00 0.00 82 1006.5
20230206034515 26 235 0.0 1.0 0.00 0.00 0.00 81 1006.5
20230206033016 27 210 0.0 3.0 0.00 0.00 0.00 82 1006.7
20230206031516 27 284 1.0 3.0 0.00 0.00 0.00 81 1006.9
20230206030010 27 0 1.0 2.0 0.00 0.00 0.00 82 1007.1
20230206024513 27 165 1.0 4.0 0.00 0.00 0.00 81 1007.1
20230206023011 27 0 0.0 1.0 0.00 0.00 0.00 81 1007.2
20230206021517 28 0 0.0 2.0 0.00 0.00 0.00 80 1007.4
20230206020010 29 0 0.0 0.0 0.00 0.00 0.00 78 1007.4
20230206014521 29 0 0.0 3.0 0.00 0.00 0.00 77 1007.7
20230206013014 30 0 0.0 3.0 0.00 0.00 0.00 77 1007.5
20230206011514 30 227 0.0 3.0 0.00 0.00 0.00 76 1007.8
20230206010011 31 0 0.0 4.0 0.00 0.00 0.00 75 1007.7
20230206004511 32 0 0.0 4.0 0.00 0.00 0.00 72 1007.2
20230206003013 34 98 2.0 4.0 0.00 0.00 0.00 67 1007.2
20230206001514 35 0 1.0 5.0 0.00 0.00 0.00 65 1007.1
20230206000019 36 13 3.0 7.0 0.00 0.00 0.00 64 1007.4
20230205234515 37 69 2.0 4.0 0.00 0.00 0.00 63 1007.5
20230205233016 37 336 3.0 5.0 0.00 0.00 0.00 62 1007.8
20230205231512 38 338 4.0 8.0 0.00 0.00 0.00 60 1007.5
20230205230015 40 61 4.0 6.0 0.00 0.00 0.00 56 1007.7
20230205224516 40 63 3.0 7.0 0.00 0.00 0.00 56 1008.1
20230205223013 40 57 3.0 6.0 0.00 0.00 0.00 53 1008.1
20230205221513 40 31 3.0 5.0 0.00 0.00 0.00 53 1008.6
20230205220015 39 61 3.0 8.0 0.00 0.00 0.00 50 1008.9
20230205214510 40 87 2.0 4.0 0.00 0.00 0.00 50 1009.3
20230205213014 40 0 0.0 5.0 0.00 0.00 0.00 51 1009.1
20230205211518 39 327 3.0 5.0 0.00 0.00 0.00 51 1009.9
20230205210011 39 330 3.0 6.0 0.00 0.00 0.00 52 1010.0
20230205204514 39 338 1.0 4.0 0.00 0.00 0.00 52 1010.1
20230205203012 38 329 2.0 6.0 0.00 0.00 0.00 56 1010.5
20230205201521 39 13 4.0 6.0 0.00 0.00 0.00 56 1011.0
20230205200011 40 86 2.0 5.0 0.00 0.00 0.00 52 1011.3
20230205194513 39 67 3.0 6.0 0.00 0.00 0.00 51 1011.4
20230205193011 39 347 3.0 8.0 0.00 0.00 0.00 52 1012.0
20230205191513 39 72 4.0 9.0 0.00 0.00 0.00 51 1012.7
20230205190013 40 90 1.0 5.0 0.00 0.00 0.00 54 1013.2
20230205184513 37 88 3.0 6.0 0.00 0.00 0.00 58 1013.9
20230205183012 36 331 2.0 5.0 0.00 0.00 0.00 58 1013.9
20230205181529 36 21 2.0 4.0 0.00 0.00 0.00 59 1014.4
20230205180012 35 355 2.0 4.0 0.00 0.00 0.00 62 1014.6
20230205174516 35 328 0.0 5.0 0.00 0.00 0.00 61 1014.8
20230205173013 35 289 2.0 4.0 0.00 0.00 0.00 61 1015.1
20230205171512 33 31 2.0 6.0 0.00 0.00 0.00 64 1015.0
20230205170011 33 333 2.0 4.0 0.00 0.00 0.00 66 1015.1
20230205164516 33 327 1.0 4.0 0.00 0.00 0.00 63 1015.5
20230205163021 33 288 1.0 4.0 0.00 0.00 0.00 64 1015.7
20230205161511 33 0 0.0 2.0 0.00 0.00 0.00 67 1015.8
20230205160012 32 0 0.0 1.0 0.00 0.00 0.00 72 1015.8
20230205154512 29 0 0.0 2.0 0.00 0.00 0.00 74 1015.9
20230205153012 28 0 0.0 0.0 0.00 0.00 0.00 75 1015.9
20230205151512 27 0 0.0 4.0 0.00 0.00 0.00 76 1016.0
20230205150017 26 221 1.0 3.0 0.00 0.00 0.00 76 1016.0
20230205144512 26 227 0.0 1.0 0.00 0.00 0.00 76 1015.8
20230205143012 24 197 1.0 3.0 0.00 0.00 0.00 78 1015.8
20230205141517 25 169 2.0 4.0 0.00 0.00 0.00 77 1015.8
20230205140015 25 0 0.0 3.0 0.00 0.00 0.00 78 1015.8
20230205134511 25 0 0.0 1.0 0.00 0.00 0.00 78 1015.8
20230205133014 25 0 0.0 0.0 0.00 0.00 0.00 76 1015.8
20230205131512 26 0 0.0 3.0 0.00 0.00 0.00 76 1015.8
20230205130012 25 235 0.0 2.0 0.00 0.00 0.00 77 1015.8
20230205124519 26 0 0.0 1.0 0.00 0.00 0.00 75 1016.0
20230205123011 27 0 1.0 4.0 0.00 0.00 0.00 75 1016.0
20230205121512 26 221 2.0 4.0 0.00 0.00 0.00 77 1016.1
20230205120012 26 186 0.0 4.0 0.00 0.00 0.00 76 1016.1
20230205114509 26 200 2.0 7.0 0.00 0.00 0.00 76 1016.1
20230205113010 26 265 0.0 2.0 0.00 0.00 0.00 76 1016.1
20230205111517 26 0 0.0 2.0 0.00 0.00 0.00 76 1016.0
20230205110015 26 197 0.0 1.0 0.00 0.00 0.00 76 1016.3
20230205104519 27 0 0.0 1.0 0.00 0.00 0.00 74 1016.2
20230205103012 28 0 0.0 2.0 0.00 0.00 0.00 72 1016.2
20230205101523 28 24 0.0 2.0 0.00 0.00 0.00 72 1016.1
20230205100012 29 0 0.0 2.0 0.00 0.00 0.00 70 1016.5
20230205094517 29 120 2.0 4.0 0.00 0.00 0.00 69 1016.1
20230205093011 30 89 2.0 5.0 0.00 0.00 0.00 69 1016.3
20230205091511 31 302 0.0 5.0 0.00 0.00 0.00 67 1016.4
20230205090036 33 323 2.0 7.0 0.00 0.00 0.00 61 1016.4
20230205084510 38 29 3.0 9.0 0.00 0.00 0.00 49 1016.4
20230205083012 44 254 5.0 9.0 0.00 0.00 0.00 35 1016.1
20230205081512 43 171 5.0 8.0 0.00 0.00 0.00 38 1016.2
20230205080013 44 159 3.0 9.0 0.00 0.00 0.00 36 1016.3
20230205074512 44 144 4.0 10.0 0.00 0.00 0.00 37 1016.3
20230205073014 44 157 8.0 13.0 0.00 0.00 0.00 36 1016.3
20230205071512 43 152 7.0 14.0 0.00 0.00 0.00 38 1016.5
20230205070019 41 146 6.0 8.0 0.00 0.00 0.00 44 1016.6
20230205064513 42 211 5.0 7.0 0.00 0.00 0.00 41 1016.8
20230205063016 43 174 8.0 11.0 0.00 0.00 0.00 39 1016.9
20230205061519 42 198 6.0 10.0 0.00 0.00 0.00 41 1017.1
20230205060012 43 138 4.0 10.0 0.00 0.00 0.00 36 1017.0
20230205054513 43 159 9.0 12.0 0.00 0.00 0.00 38 1017.1
20230205053013 42 167 10.0 15.0 0.00 0.00 0.00 40 1017.3